Time;durP1;ratioP1;P1;durP2;ratioP2;P2;SDS_P1;SDS_P2;PMS_P1;PMS_P2;Temp;Humidity;BMP_temperature;BMP_pressure;BME280_temperature;BME280_humidity;BME280_pressure;Samples;Min_cycle;Max_cycle;Signal;HPM_P1;HPM_P2
2021/12/28 00:00:29;;;;;;;31.38;6.78;;;;;;;6.90;100.00;99391.41;5043599;28;20032;-75
2021/12/28 00:02:56;;;;;;;41.33;7.28;;;;;;;6.89;100.00;99392.34;5040574;28;20021;-74
2021/12/28 00:05:22;;;;;;;27.45;6.57;;;;;;;6.86;100.00;99389.97;5051310;28;20033;-74
2021/12/28 00:07:48;;;;;;;33.10;6.60;;;;;;;6.84;100.00;99390.13;5053149;28;20029;-74
2021/12/28 00:10:16;;;;;;;30.08;6.63;;;;;;;6.83;100.00;99388.44;5050964;28;20399;-73
2021/12/28 00:12:42;;;;;;;35.92;6.85;;;;;;;6.84;100.00;99387.50;5050838;28;20028;-76
2021/12/28 00:18:02;;;;;;;42.65;7.53;;;;;;;6.80;100.00;99388.69;5040677;28;20037;-74
2021/12/28 00:20:35;;;;;;;28.15;6.45;;;;;;;6.78;100.00;99382.72;5049044;28;20399;-74
2021/12/28 00:23:03;;;;;;;34.40;7.00;;;;;;;6.75;100.00;99374.25;5050155;28;20029;-73
2021/12/28 00:25:28;;;;;;;37.58;6.93;;;;;;;6.75;100.00;99377.69;5050306;28;20120;-74
2021/12/28 00:27:53;;;;;;;37.53;7.75;;;;;;;6.72;100.00;99375.31;5048145;28;20029;-74
2021/12/28 00:30:20;;;;;;;33.60;6.95;;;;;;;6.72;100.00;99374.50;5050165;28;20654;-74
2021/12/28 00:32:53;;;;;;;33.60;6.63;;;;;;;6.70;100.00;99371.97;5045799;28;20120;-74
2021/12/28 00:35:24;;;;;;;27.40;6.57;;;;;;;6.68;100.00;99368.63;5045726;28;20075;-74
2021/12/28 00:37:50;;;;;;;30.70;8.02;;;;;;;6.67;100.00;99367.78;5050426;28;20356;-74
2021/12/28 00:40:17;;;;;;;27.48;7.43;;;;;;;6.64;100.00;99370.69;5052003;28;20379;-73
2021/12/28 00:42:42;;;;;;;29.27;7.72;;;;;;;6.64;100.00;99375.13;5044884;28;20295;-74
2021/12/28 00:45:08;;;;;;;33.70;7.05;;;;;;;6.62;100.00;99379.69;5054115;28;20036;-75
2021/12/28 00:47:34;;;;;;;29.98;7.68;;;;;;;6.61;100.00;99364.81;5053891;28;20029;-74
2021/12/28 00:49:59;;;;;;;32.55;7.05;;;;;;;6.61;100.00;99364.81;5043812;28;20029;-74
2021/12/28 00:52:24;;;;;;;35.40;6.82;;;;;;;6.60;100.00;99357.88;5053900;28;20044;-74
2021/12/28 00:54:49;;;;;;;32.53;7.28;;;;;;;6.63;100.00;99358.47;5046706;28;20482;-75
2021/12/28 00:57:15;;;;;;;35.85;7.07;;;;;;;6.62;100.00;99350.69;5054161;28;20029;-73
2021/12/28 00:59:40;;;;;;;40.15;7.63;;;;;;;6.63;100.00;99347.09;5053757;28;20380;-72
2021/12/28 01:02:05;;;;;;;35.17;7.53;;;;;;;6.62;100.00;99351.50;5050030;28;20029;-73
2021/12/28 01:04:31;;;;;;;42.03;7.75;;;;;;;6.62;100.00;99348.03;5052782;28;20021;-73
2021/12/28 01:06:57;;;;;;;35.60;8.05;;;;;;;6.62;100.00;99345.41;5064460;28;20439;-73
2021/12/28 01:09:29;;;;;;;38.67;8.07;;;;;;;6.61;100.00;99343.72;5053614;28;20021;-73
2021/12/28 01:11:54;;;;;;;33.53;7.10;;;;;;;6.59;100.00;99338.56;5050966;28;20039;-73
2021/12/28 01:14:20;;;;;;;34.90;7.15;;;;;;;6.60;100.00;99342.06;5047509;28;20756;-70
2021/12/28 01:16:45;;;;;;;41.83;8.60;;;;;;;6.57;100.00;99335.22;5053517;28;20533;-73
2021/12/28 01:19:10;;;;;;;34.85;6.75;;;;;;;6.55;100.00;99334.53;5053335;28;20120;-72
2021/12/28 01:21:36;;;;;;;37.88;7.97;;;;;;;6.56;100.00;99332.72;5040819;28;20438;-73
2021/12/28 01:24:01;;;;;;;41.95;7.90;;;;;;;6.54;100.00;99326.75;5044435;28;20231;-74
2021/12/28 01:26:26;;;;;;;39.80;7.55;;;;;;;6.53;100.00;99331.19;5052442;28;20108;-72
2021/12/28 01:28:52;;;;;;;37.10;7.22;;;;;;;6.56;100.00;99327.44;5053236;28;20384;-74
2021/12/28 01:31:17;;;;;;;37.60;7.93;;;;;;;6.57;100.00;99323.84;5047915;28;20021;-73
2021/12/28 01:33:42;;;;;;;31.20;7.18;;;;;;;6.54;100.00;99327.56;5051511;28;20025;-73
2021/12/28 01:36:07;;;;;;;37.80;7.35;;;;;;;6.56;100.00;99327.44;5048718;28;20047;-74
2021/12/28 01:38:33;;;;;;;34.13;6.72;;;;;;;6.55;100.00;99323.97;5049775;28;20077;-73
2021/12/28 01:40:58;;;;;;;34.90;6.85;;;;;;;6.54;100.00;99330.22;5052707;28;20505;-73
2021/12/28 01:43:24;;;;;;;34.95;5.97;;;;;;;6.52;100.00;99326.88;5045365;28;20033;-73
2021/12/28 01:45:56;;;;;;;38.70;7.05;;;;;;;6.51;100.00;99330.47;5052836;28;20116;-73
2021/12/28 01:48:24;;;;;;;41.80;7.25;;;;;;;6.53;100.00;99327.69;5049441;28;20083;-73
2021/12/28 01:50:53;;;;;;;38.10;6.47;;;;;;;6.50;100.00;99322.69;5050852;28;20025;-73
2021/12/28 01:53:19;;;;;;;37.17;7.07;;;;;;;6.51;100.00;99325.19;5039331;28;20690;-72
2021/12/28 01:55:48;;;;;;;35.72;6.78;;;;;;;6.51;100.00;99322.53;5038742;28;20036;-73
2021/12/28 01:58:14;;;;;;;36.92;7.00;;;;;;;6.52;100.00;99321.59;5052832;28;20044;-74
2021/12/28 02:00:43;;;;;;;50.85;7.90;;;;;;;6.52;100.00;99323.41;5050578;28;20382;-73
2021/12/28 02:03:11;;;;;;;39.85;7.25;;;;;;;6.52;100.00;99323.41;5052807;28;20463;-73
2021/12/28 02:05:37;;;;;;;37.30;7.25;;;;;;;6.54;100.00;99318.84;5051168;28;20031;-72
2021/12/28 02:08:03;;;;;;;31.27;7.13;;;;;;;6.54;100.00;99321.47;5048378;28;20029;-72
2021/12/28 02:10:29;;;;;;;48.03;6.95;;;;;;;6.56;100.00;99309.84;5046769;28;20036;-72
2021/12/28 02:12:54;;;;;;;38.17;6.80;;;;;;;6.57;100.00;99318.56;5052747;28;20033;-73
2021/12/28 02:15:20;;;;;;;39.00;7.72;;;;;;;6.59;100.00;99314.00;5052345;28;20487;-73
2021/12/28 02:17:45;;;;;;;34.55;6.05;;;;;;;6.59;100.00;99321.91;5042749;28;20032;-72
2021/12/28 02:20:14;;;;;;;40.50;6.32;;;;;;;6.58;100.00;99317.63;5052345;28;20032;-73
2021/12/28 02:22:40;;;;;;;42.00;7.53;;;;;;;6.61;100.00;99322.63;5047315;28;20495;-72
2021/12/28 02:25:07;;;;;;;42.97;7.15;;;;;;;6.62;100.00;99316.38;5052271;28;20399;-72
2021/12/28 02:27:33;;;;;;;38.97;6.95;;;;;;;6.63;100.00;99315.44;5052491;28;20016;-72
2021/12/28 02:29:59;;;;;;;38.03;6.90;;;;;;;6.64;100.00;99311.81;5046856;28;20387;-72
2021/12/28 02:32:29;;;;;;;29.42;6.35;;;;;;;6.64;100.00;99306.53;5052126;28;20021;-72
2021/12/28 02:34:56;;;;;;;41.45;7.25;;;;;;;6.64;100.00;99306.53;5050319;28;20048;-73
2021/12/28 02:37:22;;;;;;;41.95;7.63;;;;;;;6.63;100.00;99304.88;5041948;28;20447;-74
2021/12/28 02:39:48;;;;;;;39.08;6.50;;;;;;;6.62;100.00;99309.28;5046732;28;20025;-73
2021/12/28 02:42:19;;;;;;;37.58;7.07;;;;;;;6.62;100.00;99305.81;5039957;28;20755;-74
2021/12/28 02:44:45;;;;;;;34.67;6.53;;;;;;;6.64;100.00;99307.38;5042860;28;20036;-73
2021/12/28 02:47:17;;;;;;;37.08;6.75;;;;;;;6.65;100.00;99303.75;5051821;28;20107;-73
2021/12/28 02:49:42;;;;;;;37.08;7.05;;;;;;;6.67;100.00;99295.72;5052030;28;20033;-73
2021/12/28 02:52:09;;;;;;;39.45;6.93;;;;;;;6.70;100.00;99290.19;5043949;28;20108;-74
2021/12/28 02:54:37;;;;;;;40.58;6.45;;;;;;;6.71;100.00;99288.38;5051829;28;20032;-74
2021/12/28 02:57:04;;;;;;;37.88;6.68;;;;;;;6.74;100.00;99282.84;5037574;28;20024;-73
2021/12/28 02:59:29;;;;;;;35.55;7.00;;;;;;;6.73;100.00;99275.88;5051732;28;20466;-74
2021/12/28 03:01:54;;;;;;;44.95;6.68;;;;;;;6.75;100.00;99280.06;5050413;28;20045;-73
2021/12/28 03:04:23;;;;;;;33.28;6.55;;;;;;;6.77;100.00;99269.38;5051546;28;20040;-73
2021/12/28 03:06:48;;;;;;;38.58;6.45;;;;;;;6.76;100.00;99272.97;5046077;28;20459;-74
2021/12/28 03:09:15;;;;;;;30.70;6.43;;;;;;;6.77;100.00;99274.66;5051395;28;20029;-73
2021/12/28 03:11:41;;;;;;;33.42;6.40;;;;;;;6.80;100.00;99274.41;5042564;28;20058;-73
2021/12/28 03:14:06;;;;;;;29.75;5.57;;;;;;;6.79;100.00;99273.53;5049838;28;20033;-73
2021/12/28 03:16:34;;;;;;;38.03;6.75;;;;;;;6.79;100.00;99270.91;5040290;28;20032;-73
2021/12/28 03:19:00;;;;;;;42.50;6.53;;;;;;;6.82;100.00;99278.56;5051178;28;20029;-73
2021/12/28 03:21:27;;;;;;;41.78;6.40;;;;;;;6.84;100.00;99274.00;5045211;28;20090;-73
2021/12/28 03:23:54;;;;;;;39.72;6.57;;;;;;;6.84;100.00;99270.53;5042962;28;20025;-73
2021/12/28 03:26:20;;;;;;;40.30;6.15;;;;;;;6.85;100.00;99273.03;5060674;28;20024;-74
2021/12/28 03:28:46;;;;;;;40.80;6.28;;;;;;;6.87;100.00;99264.16;5051129;28;20021;-74
2021/12/28 03:31:14;;;;;;;36.17;5.95;;;;;;;6.89;100.00;99262.22;5049616;28;20111;-73
2021/12/28 03:33:41;;;;;;;33.33;6.28;;;;;;;6.90;100.00;99258.63;5049769;28;20117;-74
2021/12/28 03:36:08;;;;;;;36.85;6.18;;;;;;;6.94;100.00;99260.00;5050867;28;20048;-73
2021/12/28 03:38:35;;;;;;;35.30;6.07;;;;;;;6.97;100.00;99257.09;5045077;28;20067;-73
2021/12/28 03:41:07;;;;;;;35.63;6.30;;;;;;;7.00;100.00;99257.66;5045018;28;20032;-74
2021/12/28 03:43:32;;;;;;;32.17;5.53;;;;;;;7.04;100.00;99250.31;5038575;28;20060;-73
2021/12/28 03:45:57;;;;;;;36.70;5.75;;;;;;;7.06;100.00;99248.41;5050575;28;20056;-74
2021/12/28 03:48:23;;;;;;;29.75;5.13;;;;;;;7.07;100.00;99244.75;5050655;28;20094;-74
2021/12/28 03:50:48;;;;;;;32.35;5.63;;;;;;;7.08;100.00;99243.81;5049397;28;20036;-73
2021/12/28 03:53:13;;;;;;;27.52;5.15;;;;;;;7.11;100.00;99243.53;5045156;28;20344;-73
2021/12/28 03:55:39;;;;;;;26.17;5.32;;;;;;;7.12;100.00;99232.00;5048967;28;20350;-73
2021/12/28 03:58:05;;;;;;;30.02;4.95;;;;;;;7.13;100.00;99235.50;5040648;28;20037;-74
2021/12/28 04:00:33;;;;;;;30.60;5.60;;;;;;;7.16;100.00;99235.19;5052657;28;20468;-74
2021/12/28 04:02:59;;;;;;;27.50;5.65;;;;;;;7.15;100.00;99223.81;5055734;28;20117;-73
2021/12/28 04:05:25;;;;;;;38.28;6.00;;;;;;;7.16;100.00;99220.22;5057558;28;20060;-74
2021/12/28 04:07:50;;;;;;;32.10;4.78;;;;;;;7.17;100.00;99219.22;5049906;28;20047;-74
2021/12/28 04:10:16;;;;;;;31.98;6.25;;;;;;;7.20;100.00;99226.03;5050654;28;20024;-74
2021/12/28 04:12:43;;;;;;;27.85;5.15;;;;;;;7.21;100.00;99219.78;5050841;28;20039;-74
2021/12/28 04:15:13;;;;;;;29.10;5.10;;;;;;;7.26;100.00;99225.50;5050105;28;20036;-74
2021/12/28 04:17:38;;;;;;;;;;;;;;;7.29;100.00;99219.94;5048173;28;20037;-74
2021/12/28 04:20:07;;;;;;;25.52;5.13;;;;;;;7.29;100.00;99219.09;5043468;28;19958;-74
2021/12/28 04:22:32;;;;;;;26.65;4.50;;;;;;;7.32;100.00;99213.56;5045448;28;20036;-74
2021/12/28 04:24:57;;;;;;;31.95;5.32;;;;;;;7.36;100.00;99217.56;5050373;28;20029;-73
2021/12/28 04:27:23;;;;;;;28.25;4.93;;;;;;;7.39;100.00;99215.53;5050361;28;20036;-73
2021/12/28 04:29:48;;;;;;;27.02;5.13;;;;;;;7.42;100.00;99222.31;5042201;28;20033;-73
2021/12/28 04:32:14;;;;;;;23.55;4.82;;;;;;;7.40;100.00;99222.47;5050158;28;20083;-73
2021/12/28 04:34:39;;;;;;;27.23;4.43;;;;;;;7.44;100.00;99223.00;5050183;28;20039;-74
2021/12/28 04:37:04;;;;;;;28.80;5.50;;;;;;;7.46;100.00;99221.09;5047706;28;20028;-74
2021/12/28 04:39:30;;;;;;;29.40;5.05;;;;;;;7.48;100.00;99227.06;5041577;28;20309;-73
2021/12/28 04:41:55;;;;;;;30.10;4.82;;;;;;;7.49;100.00;99225.25;5038532;28;20080;-73
2021/12/28 04:44:24;;;;;;;30.63;5.00;;;;;;;7.52;100.00;99222.34;5030508;28;20448;-73
2021/12/28 04:46:51;;;;;;;28.00;4.90;;;;;;;7.54;100.00;99225.66;5048203;28;20040;-73
2021/12/28 04:49:17;;;;;;;31.58;5.20;;;;;;;7.58;100.00;99229.72;5046315;28;20033;-73
2021/12/28 04:51:43;;;;;;;32.33;5.03;;;;;;;7.60;100.00;99235.69;5049987;28;20522;-74
2021/12/28 04:54:12;;;;;;;22.95;4.50;;;;;;;7.63;100.00;99230.13;5049848;28;20017;-74
2021/12/28 04:56:38;;;;;;;30.75;4.40;;;;;;;7.63;100.00;99235.41;5045012;28;20036;-74
2021/12/28 04:59:04;;;;;;;26.13;4.55;;;;;;;7.63;100.00;99234.56;5048201;28;20063;-73
2021/12/28 05:01:30;;;;;;;21.15;4.35;;;;;;;7.64;100.00;99233.59;5049701;28;20237;-73
2021/12/28 05:03:55;;;;;;;33.47;4.70;;;;;;;7.61;100.00;99226.81;5037829;28;20034;-73
2021/12/28 05:06:20;;;;;;;30.63;5.30;;;;;;;7.64;100.00;99230.97;5051269;28;20040;-73
2021/12/28 05:08:45;;;;;;;27.67;4.97;;;;;;;7.66;100.00;99229.00;5064967;28;20147;-72
2021/12/28 05:11:11;;;;;;;21.33;4.20;;;;;;;7.66;100.00;99218.44;5037314;28;20044;-72
2021/12/28 05:13:36;;;;;;;19.83;3.83;;;;;;;7.65;100.00;99220.25;5049930;28;20025;-72
2021/12/28 05:16:01;;;;;;;23.58;4.63;;;;;;;7.66;100.00;99215.78;5049589;28;20074;-72
2021/12/28 05:18:27;;;;;;;17.40;3.95;;;;;;;7.66;100.00;99210.50;5046307;28;21436;-72
2021/12/28 05:20:52;;;;;;;19.42;3.67;;;;;;;7.65;100.00;99211.50;5043413;28;20021;-72
2021/12/28 05:23:17;;;;;;;23.08;4.65;;;;;;;7.64;100.00;99212.47;5048955;28;20404;-72
2021/12/28 05:25:43;;;;;;;24.73;3.83;;;;;;;7.65;100.00;99208.84;5049003;28;20060;-73
2021/12/28 05:28:09;;;;;;;18.02;3.60;;;;;;;7.66;100.00;99211.38;5051455;28;20499;-73
2021/12/28 05:30:35;;;;;;;19.25;4.25;;;;;;;7.66;100.00;99207.88;5053477;28;20443;-73
2021/12/28 05:33:01;;;;;;;20.40;3.90;;;;;;;7.65;100.00;99203.56;5053276;28;20036;-73
2021/12/28 05:35:26;;;;;;;14.85;4.20;;;;;;;7.67;100.00;99204.25;5046199;28;20046;-73
2021/12/28 05:37:52;;;;;;;19.33;3.88;;;;;;;7.68;100.00;99206.78;5033440;28;20044;-72
2021/12/28 05:40:17;;;;;;;19.15;3.58;;;;;;;7.70;100.00;99201.34;5033705;28;20122;-72
2021/12/28 05:42:43;;;;;;;16.30;3.75;;;;;;;7.71;100.00;99197.72;5033484;28;20124;-74
2021/12/28 05:45:10;;;;;;;20.80;4.55;;;;;;;7.70;100.00;99194.25;5037563;28;20446;-73
2021/12/28 05:47:35;;;;;;;23.33;3.97;;;;;;;7.72;100.00;99192.28;5053364;28;20017;-73
2021/12/28 05:50:02;;;;;;;13.80;3.08;;;;;;;7.72;100.00;99187.00;5053097;28;20043;-73
2021/12/28 05:52:27;;;;;;;21.02;3.30;;;;;;;7.74;100.00;99177.16;5047620;28;20444;-73
2021/12/28 05:54:53;;;;;;;14.90;3.30;;;;;;;7.75;100.00;99180.63;5045491;28;20067;-72
2021/12/28 05:57:18;;;;;;;10.90;2.97;;;;;;;7.76;100.00;99187.56;5053034;28;20483;-72
2021/12/28 05:59:43;;;;;;;15.75;3.40;;;;;;;7.77;100.00;99181.31;5053087;28;20025;-73
2021/12/28 06:02:09;;;;;;;13.38;3.38;;;;;;;7.78;100.00;99175.06;5045029;28;20030;-74
2021/12/28 06:04:35;;;;;;;18.48;3.33;;;;;;;7.80;100.00;99181.03;5050987;28;20120;-73
2021/12/28 06:07:00;;;;;;;16.20;3.15;;;;;;;7.81;100.00;99173.91;5048389;28;20033;-74
2021/12/28 06:09:26;;;;;;;14.40;3.30;;;;;;;7.80;100.00;99162.53;5053636;28;20028;-73
2021/12/28 06:11:51;;;;;;;13.18;3.15;;;;;;;7.83;100.00;99169.31;5052327;28;20112;-72
2021/12/28 06:14:16;;;;;;;20.52;2.92;;;;;;;7.83;100.00;99169.31;5054950;28;20018;-72
2021/12/28 06:16:42;;;;;;;16.45;3.17;;;;;;;7.83;100.00;99166.69;5065839;28;20463;-73
2021/12/28 06:19:07;;;;;;;15.43;2.65;;;;;;;7.85;100.00;99170.03;5051185;28;20025;-73
2021/12/28 06:21:34;;;;;;;14.32;3.08;;;;;;;7.85;100.00;99167.41;5049810;28;20053;-73
2021/12/28 06:24:01;;;;;;;12.75;3.05;;;;;;;7.87;100.00;99162.78;5042643;28;20032;-73
2021/12/28 06:26:28;;;;;;;18.05;3.05;;;;;;;7.86;100.00;99161.97;5052824;28;20067;-72
2021/12/28 06:28:53;;;;;;;11.73;2.70;;;;;;;7.88;100.00;99151.25;5047795;28;20028;-73
2021/12/28 06:31:18;;;;;;;15.05;3.13;;;;;;;7.88;100.00;99141.50;5048956;28;20734;-72
2021/12/28 06:33:44;;;;;;;12.77;2.60;;;;;;;7.91;100.00;99143.00;5048171;28;20036;-73
2021/12/28 06:36:09;;;;;;;12.05;2.72;;;;;;;7.91;100.00;99143.88;5043677;28;20056;-73
2021/12/28 06:38:34;;;;;;;12.95;3.47;;;;;;;7.91;100.00;99137.72;5045780;28;20025;-72
2021/12/28 06:41:00;;;;;;;8.98;2.35;;;;;;;7.91;100.00;99130.66;5052180;28;20041;-73
2021/12/28 06:43:25;;;;;;;15.15;2.78;;;;;;;7.91;100.00;99137.72;5051839;28;20025;-71
2021/12/28 06:45:51;;;;;;;15.18;2.75;;;;;;;7.90;100.00;99150.13;5048615;28;20032;-71
2021/12/28 06:48:17;;;;;;;9.90;2.47;;;;;;;7.88;100.00;99143.31;5051597;28;20063;-71
2021/12/28 06:50:42;;;;;;;8.18;2.20;;;;;;;7.89;100.00;99139.69;5051642;28;20056;-73
2021/12/28 06:53:07;;;;;;;16.60;2.85;;;;;;;7.88;100.00;99133.56;5051671;28;20218;-72
2021/12/28 06:55:33;;;;;;;11.60;2.40;;;;;;;7.88;100.00;99130.94;5038807;28;20096;-73
2021/12/28 06:57:58;;;;;;;9.07;2.55;;;;;;;7.90;100.00;99130.78;5052108;28;20056;-73
2021/12/28 07:00:23;;;;;;;10.70;2.63;;;;;;;7.88;100.00;99133.56;5054194;28;20095;-73
2021/12/28 07:02:49;;;;;;;13.57;2.85;;;;;;;7.87;100.00;99139.84;5052050;28;20056;-73
2021/12/28 07:05:14;;;;;;;10.32;2.55;;;;;;;7.88;100.00;99144.16;5049334;28;20024;-73
2021/12/28 07:07:40;;;;;;;11.80;2.53;;;;;;;7.88;100.00;99138.03;5050903;28;20087;-73
2021/12/28 07:10:07;;;;;;;13.30;2.67;;;;;;;7.89;100.00;99139.69;5051128;28;20048;-73
2021/12/28 07:12:33;;;;;;;9.68;2.30;;;;;;;7.87;100.00;99129.25;5064052;28;20450;-73
2021/12/28 07:14:58;;;;;;;9.75;2.28;;;;;;;7.88;100.00;99130.13;5051378;28;20609;-73
2021/12/28 07:17:26;;;;;;;10.80;2.80;;;;;;;7.91;100.00;99138.59;5051208;28;20025;-74
2021/12/28 07:19:52;;;;;;;8.52;2.13;;;;;;;7.91;100.00;99138.59;5048483;28;20497;-74
2021/12/28 07:22:17;;;;;;;10.75;2.25;;;;;;;7.91;100.00;99133.31;5044600;28;20056;-70
2021/12/28 07:24:43;;;;;;;11.55;2.20;;;;;;;7.93;100.00;99138.44;5037869;28;20044;-73
2021/12/28 07:27:08;;;;;;;9.60;2.42;;;;;;;7.93;100.00;99138.44;5047994;28;20029;-73
2021/12/28 07:29:33;;;;;;;9.23;2.35;;;;;;;7.93;100.00;99138.44;5035528;28;20041;-72
2021/12/28 07:32:00;;;;;;;14.35;2.88;;;;;;;7.94;100.00;99127.72;5049595;28;20421;-72
2021/12/28 07:34:26;;;;;;;9.63;2.40;;;;;;;7.95;100.00;99126.75;5038917;28;20040;-71
2021/12/28 07:36:51;;;;;;;15.10;2.45;;;;;;;7.94;100.00;99133.03;5042946;28;20411;-72
2021/12/28 07:39:16;;;;;;;8.95;2.20;;;;;;;7.96;100.00;99135.53;5052102;28;20033;-72
2021/12/28 07:41:42;;;;;;;6.50;2.20;;;;;;;7.96;100.00;99135.53;5051491;28;20033;-72
2021/12/28 07:44:07;;;;;;;7.47;2.28;;;;;;;7.96;100.00;99130.22;5050609;28;20053;-70
2021/12/28 07:46:33;;;;;;;6.63;2.10;;;;;;;7.96;100.00;99133.69;5035451;28;20021;-71
2021/12/28 07:48:58;;;;;;;8.48;2.15;;;;;;;7.97;100.00;99132.72;5042512;28;20036;-72
2021/12/28 07:51:23;;;;;;;8.20;2.40;;;;;;;7.99;100.00;99137.03;5043005;28;20025;-72
2021/12/28 07:53:48;;;;;;;10.02;2.70;;;;;;;7.99;100.00;99129.09;5049032;28;20407;-72
2021/12/28 07:56:14;;;;;;;8.30;2.35;;;;;;;7.97;100.00;99132.72;5049573;28;20044;-72
2021/12/28 07:58:39;;;;;;;9.48;2.55;;;;;;;8.00;100.00;99128.13;5047580;28;20036;-72
2021/12/28 08:01:05;;;;;;;8.77;2.95;;;;;;;7.99;100.00;99116.69;5037956;28;20067;-72
2021/12/28 08:03:30;;;;;;;8.15;2.83;;;;;;;8.02;100.00;99118.25;5034828;28;20515;-71
2021/12/28 08:05:55;;;;;;;8.40;3.20;;;;;;;8.02;100.00;99124.34;5039175;28;20033;-72
2021/12/28 08:08:20;;;;;;;7.22;2.72;;;;;;;8.04;100.00;99124.22;5032668;28;20506;-72
2021/12/28 08:10:46;;;;;;;6.63;3.20;;;;;;;8.03;100.00;99118.09;5034393;28;20013;-71
2021/12/28 08:13:12;;;;;;;9.95;3.53;;;;;;;8.03;100.00;99115.47;5031191;28;20034;-72
2021/12/28 08:15:37;;;;;;;8.02;3.53;;;;;;;8.05;100.00;99121.44;5046153;28;20082;-72
2021/12/28 08:18:04;;;;;;;8.85;3.33;;;;;;;8.05;100.00;99121.44;5041955;28;20057;-72
2021/12/28 08:20:30;;;;;;;13.73;4.00;;;;;;;8.07;100.00;99118.63;5044191;28;20104;-71
2021/12/28 08:22:59;;;;;;;7.72;4.00;;;;;;;8.08;100.00;99125.59;5048659;28;20542;-72
2021/12/28 08:25:25;;;;;;;8.73;3.85;;;;;;;8.08;100.00;99115.84;5049813;28;20029;-71
2021/12/28 08:27:51;;;;;;;7.93;4.10;;;;;;;8.10;100.00;99123.66;5037838;28;20048;-71
2021/12/28 08:30:19;;;;;;;9.38;4.95;;;;;;;8.11;100.00;99122.66;5047539;28;20039;-71
2021/12/28 08:32:46;;;;;;;8.68;4.80;;;;;;;8.11;100.00;99109.44;5049000;28;20484;-71
2021/12/28 08:35:12;;;;;;;10.77;5.00;;;;;;;8.14;100.00;99117.06;5049114;28;20052;-71
2021/12/28 08:37:38;;;;;;;7.25;5.45;;;;;;;8.14;100.00;99106.50;5045635;28;20057;-71
2021/12/28 08:40:06;;;;;;;6.90;5.15;;;;;;;8.17;100.00;99114.16;5035131;28;20029;-71
2021/12/28 08:42:31;;;;;;;8.48;6.03;;;;;;;8.17;100.00;99108.84;5040290;28;20036;-73
2021/12/28 08:44:57;;;;;;;12.35;7.18;;;;;;;8.18;100.00;99110.53;5061220;28;20044;-71
2021/12/28 08:47:26;;;;;;;10.48;6.35;;;;;;;8.19;100.00;99101.59;5041324;28;20388;-70
2021/12/28 08:49:56;;;;;;;13.23;7.40;;;;;;;8.21;100.00;99104.97;5044685;28;20100;-70
2021/12/28 08:52:22;;;;;;;13.07;6.95;;;;;;;8.24;100.00;99106.47;5044990;28;20029;-67
2021/12/28 08:54:48;;;;;;;9.32;7.35;;;;;;;8.22;100.00;99103.97;5043887;28;20029;-70
2021/12/28 08:57:13;;;;;;;9.80;7.70;;;;;;;8.24;100.00;99112.56;5050091;28;20032;-75
2021/12/28 08:59:39;;;;;;;10.45;7.78;;;;;;;8.25;100.00;99111.63;5048777;28;20479;-70
2021/12/28 09:02:05;;;;;;;11.48;7.32;;;;;;;8.26;100.00;99101.84;5056379;28;20147;-70
2021/12/28 09:04:30;;;;;;;11.88;7.93;;;;;;;8.27;100.00;99096.44;5053137;28;20020;-70
2021/12/28 09:06:56;;;;;;;9.38;8.48;;;;;;;8.29;100.00;99096.28;5055350;28;20043;-70
2021/12/28 09:09:21;;;;;;;9.85;8.82;;;;;;;8.29;100.00;99097.13;5055396;28;20036;-69
2021/12/28 09:11:46;;;;;;;11.30;9.35;;;;;;;8.32;100.00;99091.53;5055438;28;20033;-69
2021/12/28 09:14:12;;;;;;;11.38;8.63;;;;;;;8.33;100.00;99098.50;5043375;28;20075;-69
2021/12/28 09:16:37;;;;;;;9.02;7.90;;;;;;;8.35;100.00;99090.41;5055152;28;20056;-70
2021/12/28 09:19:03;;;;;;;10.23;8.77;;;;;;;8.38;100.00;99090.13;5055066;28;20460;-70
2021/12/28 09:21:29;;;;;;;10.02;8.73;;;;;;;8.41;100.00;99079.25;5051579;28;20443;-70
2021/12/28 09:23:54;;;;;;;12.20;8.80;;;;;;;8.42;100.00;99083.53;5054896;28;20037;-70
2021/12/28 09:26:19;;;;;;;10.38;8.80;;;;;;;8.44;100.00;99073.72;5051834;28;20029;-69
2021/12/28 09:28:45;;;;;;;10.73;8.00;;;;;;;8.47;100.00;99075.22;5045098;28;20123;-69
2021/12/28 09:31:10;;;;;;;10.13;8.27;;;;;;;8.48;100.00;99074.25;5047435;28;20375;-69
2021/12/28 09:33:35;;;;;;;10.05;8.30;;;;;;;8.51;100.00;99076.59;5039924;28;20037;-69
2021/12/28 09:36:02;;;;;;;9.65;8.65;;;;;;;8.54;100.00;99070.16;5037517;28;20053;-68
2021/12/28 09:38:27;;;;;;;9.93;8.15;;;;;;;8.54;100.00;99065.69;5045857;28;20033;-68
2021/12/28 09:40:53;;;;;;;9.82;8.40;;;;;;;8.56;100.00;99060.25;5054648;28;20081;-69
2021/12/28 09:43:19;;;;;;;8.93;8.02;;;;;;;8.58;100.00;99064.44;5050563;28;20034;-69
2021/12/28 09:45:44;;;;;;;9.20;8.13;;;;;;;8.60;100.00;99059.00;5046284;28;20052;-69
2021/12/28 09:48:10;;;;;;;11.43;8.73;;;;;;;8.61;100.00;99060.63;5050467;28;20021;-69
2021/12/28 09:50:39;;;;;;;9.45;8.40;;;;;;;8.62;100.00;99057.00;5046980;28;20032;-69
2021/12/28 09:53:06;;;;;;;8.43;7.28;;;;;;;8.65;100.00;99060.19;5045699;28;20418;-69
2021/12/28 09:55:31;;;;;;;8.27;7.25;;;;;;;8.66;100.00;99053.94;5051100;28;20123;-69
2021/12/28 09:57:59;;;;;;;7.55;6.95;;;;;;;8.69;100.00;99048.34;5052115;28;20100;-69
2021/12/28 10:00:25;;;;;;;9.13;7.80;;;;;;;8.72;100.00;99043.72;5052076;28;20032;-69
2021/12/28 10:02:52;;;;;;;7.68;6.97;;;;;;;8.74;100.00;99045.22;5048837;28;20479;-69
2021/12/28 10:05:25;;;;;;;7.13;6.38;;;;;;;8.75;100.00;99046.91;5022231;28;20714;-69
2021/12/28 10:07:59;;;;;;;7.07;6.38;;;;;;;8.78;100.00;99036.00;5046578;28;20039;-69
2021/12/28 10:10:27;;;;;;;6.47;5.88;;;;;;;8.79;100.00;99035.03;5051278;28;20037;-70
2021/12/28 10:12:55;;;;;;;6.10;5.50;;;;;;;8.82;100.00;99033.91;5033112;28;20031;-69
2021/12/28 10:15:24;;;;;;;6.70;5.80;;;;;;;8.83;100.00;99028.44;5031909;28;20654;-70
2021/12/28 10:17:52;;;;;;;6.77;5.47;;;;;;;8.86;100.00;99024.69;5030848;28;20030;-69
2021/12/28 10:20:23;;;;;;;6.53;5.10;;;;;;;8.88;100.00;99020.88;5031251;28;20029;-69
2021/12/28 10:22:54;;;;;;;5.70;5.00;;;;;;;8.88;100.00;99002.34;5033451;28;20065;-69
2021/12/28 10:25:23;;;;;;;6.75;4.80;;;;;;;8.92;100.00;99002.06;5047273;28;20024;-69
2021/12/28 10:27:51;;;;;;;5.10;4.13;;;;;;;8.94;100.00;98994.78;5050303;28;20020;-70
2021/12/28 10:30:22;;;;;;;4.97;4.20;;;;;;;8.97;100.00;98982.06;5051270;28;20032;-69
2021/12/28 10:32:52;;;;;;;4.40;4.00;;;;;;;9.02;100.00;98987.72;5037498;28;20026;-69
2021/12/28 10:35:23;;;;;;;3.70;3.45;;;;;;;9.05;100.00;98983.97;5031577;28;20125;-69
2021/12/28 10:37:52;;;;;;;4.25;3.85;;;;;;;9.08;100.00;98973.06;5030752;28;20152;-70
2021/12/28 10:40:28;;;;;;;4.90;3.50;;;;;;;9.12;100.00;98971.75;5031444;28;20495;-69
2021/12/28 10:42:53;;;;;;;3.13;2.83;;;;;;;9.16;100.00;98977.56;5031789;28;20029;-70
2021/12/28 10:45:36;;;;;;;6.03;2.90;;;;;;;9.17;100.00;98973.94;5032580;28;20112;-70
2021/12/28 10:48:12;;;;;;;4.18;3.35;;;;;;;9.19;100.00;98975.47;5033491;28;20298;-71
2021/12/28 10:51:09;;;;;;;3.97;2.65;;;;;;;9.19;100.00;98971.97;5031555;28;20039;-71
2021/12/28 10:54:12;;;;;;;6.03;2.78;;;;;;;9.21;100.00;98973.50;5026155;28;20040;-69
2021/12/28 10:56:49;;;;;;;3.33;2.70;;;;;;;9.20;100.00;98969.16;5051065;28;20375;-69
2021/12/28 10:59:21;;;;;;;5.68;2.80;;;;;;;9.21;100.00;98962.06;5050994;28;20029;-68
2021/12/28 11:01:47;;;;;;;4.70;2.80;;;;;;;9.20;100.00;98969.16;5046240;28;20039;-68
2021/12/28 11:04:13;;;;;;;4.05;2.85;;;;;;;9.17;100.00;98961.53;5050591;28;20104;-68
2021/12/28 11:06:42;;;;;;;4.40;2.97;;;;;;;9.15;100.00;98950.25;5049779;28;20025;-68
2021/12/28 11:09:19;;;;;;;3.53;2.83;;;;;;;9.17;100.00;98947.47;5045430;28;20025;-67
2021/12/28 11:11:46;;;;;;;3.42;2.75;;;;;;;9.16;100.00;98943.13;5054872;28;20029;-67
2021/12/28 11:14:17;;;;;;;5.20;2.85;;;;;;;9.17;100.00;98944.81;5037732;28;20025;-67
2021/12/28 11:16:48;;;;;;;3.90;3.50;;;;;;;9.15;100.00;98931.72;5054194;28;20429;-67
2021/12/28 11:19:21;;;;;;;4.97;3.40;;;;;;;9.16;100.00;98935.19;5050408;28;20035;-67
2021/12/28 11:21:53;;;;;;;5.03;3.05;;;;;;;9.15;100.00;98925.59;5043838;28;20037;-68
2021/12/28 11:24:18;;;;;;;3.28;2.53;;;;;;;9.17;100.00;98936.88;5038503;28;20021;-68
2021/12/28 11:26:46;;;;;;;4.57;2.40;;;;;;;9.16;100.00;98933.41;5049163;28;20454;-68